Portada
METAR-TAF:

METAR-TAF

Aeroports :

Vavaʻu, Tonga

latitud: 18-35-07S, longitud: 173-57-42W, altitud: 72 m

Observació

L'informe es va fer fa 1 hora i 7 minuts, a les 03:00 UTC
Vent 5 kt del Sud/Sud-Est
Temperatura 28°C
Humitat 74%
Pressió 1006 hPa
Visibilitat 10 km o més
Núvols disperses a una alçada de 1700 ft, Cumulus congestus.

METAR: NFTV 200300Z 16005KT 9999 SCT017TCU 28/23 Q1006

Hora: 17:07 (04:07 UTC)

Pronòstic

L'informe es va fer fa 4 hores i 50 minuts, a les 23:17 UTC
Pronòstic vàlid del 20 a les 00 UTC al 20 a les 24 UTC
Vent 4 kt del Sud-Est
Visibilitat 10 km o més
Núvols disperses a una alçada de 1800 ft

TAF: NFTV 192317Z 2000/2024 13004KT 9999 SCT018

Observacions i pronòstics meteorològics de més de 4000 aeroports (METAR i TAF).

Les estacions disponibles són els punts grocs i vermells al mapa.

Posi el ratolí al punt desitjat per veure el nom de l'estació.

Feu clic per veure les observacions i els pronòstics meteorològics.

Per canviar el mapa: feu clic els botons verds amb una creu de color negre per apropar; al botó verd amb un guió per allunyar la imatge; o en les fletxes verdes per a mapes adjacents.


METAR-TAF: